Edgewater, New Jersey
Current Conditions -  °F | °C
As of 5:51 AM on Friday 24 Oct 2014 (Local Time) from KNYC Reporting Station
Broken Clouds Broken Clouds  
Wind Chill: 51°   Ceiling: 9500
Heat Index: 51°   Visibility: 10mi
Dew Point: 42°   Wind: 5mph
Humidity: 71%   Direction: NA
Pressure: 29.81"   Gusts: NA
Location:  40.83°N, 73.97°W
Report Text: KNYC 240951Z AUTO VRB04KT 10SM BKN095 11/06 A2981 RMK AO2 SLP088 T01060056 $
Loading
Personal Weather Stations






























Interactive Weather Map New forecast layout! Learn more

10-Day Weather Forecast

Advertisements
Track Severe Weather on mobile